Ta-fan-lieh, Taiwan
Current Conditions -  °F | °C
As of 3:00 AM on Sunday 28 Dec 2014 (Local Time) from RCKH Reporting Station
Haze Haze  
Wind Chill: 63°   Ceiling: 8000
Heat Index: 63°   Visibility: 1.3mi
Dew Point: 61°   Wind: 8mph
Humidity: 94%   Direction: 30°NNE
Pressure: 30.09"   Gusts: NA
Location:  21.97°N, 120.77°E
Report Text: RCKH 271900Z 03007KT 330V050 2200 BR FEW016 SCT035 BKN08017/16 Q1019 NOSIG RMK A3009
Loading
Personal Weather Stations






























Interactive Weather Map New forecast layout! Learn more

10-Day Weather Forecast

Advertisements
Track Severe Weather on mobile